Portada
METAR-TAF:

METAR-TAF

Aeroports :

Griffiss_Air_Force_Base

Rome, Nova York, Estats Units d'Amèrica

latitud: 43-14N, longitud: 075-24W, altitud: 154 m

Observació

L'informe es va fer fa 43 minuts, a les 04:53 UTC
Vent 3 kt del Nord/Nord-Est
Temperatura 14°C
Humitat 94%
Pressió 1016 hPa
Visibilitat: 16.1 km
Núvols disperses a una alçada de 9500 ft

METAR: KRME 180453Z AUTO 03003KT 10SM SCT095 14/13 A3001 RMK AO2 SLP158 T01390133 402440111

Hora: 01:36 (05:36 UTC)

Pronòstic

L'informe es va fer fa 5 hores i 51 minuts, a les 23:45 UTC
Pronòstic vàlid del 18 a les 00 UTC al 18 a les 24 UTC
Vent 3 kt amb direcció variable
Visibilitat: 10 km
Núvols disperses a una alçada de 25000 ft
A partir de les 18 a les 1100 UTC
Vent 4 kt amb direcció variable
Visibilitat: 10 km
Cel ennuvolat a una alçada de 6000 ft

TAF: KRME 172345Z 1800/1824 VRB03KT P6SM SCT250 FM181100 VRB04KT P6SM BKN060

Observacions i pronòstics meteorològics de més de 4000 aeroports (METAR i TAF).

Les estacions disponibles són els punts grocs i vermells al mapa.

Posi el ratolí al punt desitjat per veure el nom de l'estació.

Feu clic per veure les observacions i els pronòstics meteorològics.

Per canviar el mapa: feu clic els botons verds amb una creu de color negre per apropar; al botó verd amb un guió per allunyar la imatge; o en les fletxes verdes per a mapes adjacents.


METAR-TAF: